createdAt,value
2018-02-02T00:00:09.437Z,994.50
2018-02-02T00:01:09.500Z,994.49
2018-02-02T00:02:09.565Z,994.50
2018-02-02T00:03:09.629Z,994.48
2018-02-02T00:04:09.694Z,994.44
2018-02-02T00:05:09.759Z,994.41
2018-02-02T00:06:09.823Z,994.41
2018-02-02T00:07:09.887Z,994.41
2018-02-02T00:08:09.951Z,994.41
2018-02-02T00:09:10.016Z,994.36
2018-02-02T00:10:10.080Z,994.41
2018-02-02T00:11:10.145Z,994.34
2018-02-02T00:12:10.209Z,994.37
2018-02-02T00:13:10.273Z,994.35
2018-02-02T00:14:10.337Z,994.37
2018-02-02T00:15:10.403Z,994.41
2018-02-02T00:16:10.466Z,994.40
2018-02-02T00:17:10.532Z,994.41
2018-02-02T00:18:10.630Z,994.37
2018-02-02T00:19:10.661Z,994.38
2018-02-02T00:20:10.725Z,994.37
2018-02-02T00:21:10.790Z,994.37
2018-02-02T00:22:10.854Z,994.41
2018-02-02T00:23:10.918Z,994.36
2018-02-02T00:24:10.983Z,994.41
2018-02-02T00:25:11.047Z,994.41
2018-02-02T00:26:11.112Z,994.47
2018-02-02T00:27:11.177Z,994.45
2018-02-02T00:28:11.240Z,994.47
2018-02-02T00:29:11.305Z,994.48
2018-02-02T00:30:11.370Z,994.49
2018-02-02T00:31:11.434Z,994.46
2018-02-02T00:32:11.499Z,994.42
2018-02-02T00:33:11.608Z,994.47
2018-02-02T00:34:11.627Z,994.40
2018-02-02T00:35:11.694Z,994.40
2018-02-02T00:36:11.758Z,994.38
2018-02-02T00:37:11.821Z,994.36
2018-02-02T00:38:11.885Z,994.37
2018-02-02T00:39:11.952Z,994.37
2018-02-02T00:40:12.014Z,994.38
2018-02-02T00:41:12.079Z,994.34
2018-02-02T00:42:12.145Z,994.40
2018-02-02T00:43:12.209Z,994.40
2018-02-02T00:44:12.274Z,994.45
2018-02-02T00:45:12.338Z,994.42
2018-02-02T00:46:12.403Z,994.37
2018-02-02T00:47:12.468Z,994.41
2018-02-02T00:48:12.533Z,994.38
2018-02-02T00:49:12.597Z,994.38
2018-02-02T00:50:12.660Z,994.31
2018-02-02T00:51:12.726Z,994.30
2018-02-02T00:52:12.789Z,994.27
2018-02-02T00:53:12.859Z,994.31
2018-02-02T00:54:12.919Z,994.32
2018-02-02T00:55:12.983Z,994.28
2018-02-02T00:56:13.049Z,994.30
2018-02-02T00:57:13.112Z,994.27
2018-02-02T00:58:13.177Z,994.25
2018-02-02T00:59:13.242Z,994.23
2018-02-02T01:00:13.304Z,994.24
2018-02-02T01:01:13.374Z,994.24
2018-02-02T01:02:13.434Z,994.24
2018-02-02T01:03:13.501Z,994.21
2018-02-02T01:04:13.564Z,994.27
2018-02-02T01:05:13.628Z,994.27
2018-02-02T01:06:13.693Z,994.30
2018-02-02T01:07:13.759Z,994.27
2018-02-02T01:08:13.824Z,994.30
2018-02-02T01:09:13.890Z,994.30
2018-02-02T01:10:13.956Z,994.26
2018-02-02T01:11:14.017Z,994.32
2018-02-02T01:12:14.080Z,994.27
2018-02-02T01:13:14.148Z,994.26
2018-02-02T01:14:14.211Z,994.27
2018-02-02T01:15:14.276Z,994.26
2018-02-02T01:16:14.338Z,994.26
2018-02-02T01:17:14.404Z,994.30
2018-02-02T01:18:14.469Z,994.25
2018-02-02T01:19:14.534Z,994.23
2018-02-02T01:20:14.597Z,994.24
2018-02-02T01:21:14.664Z,994.20
2018-02-02T01:22:14.729Z,994.24
2018-02-02T01:23:14.794Z,994.20
2018-02-02T01:24:14.856Z,994.25
2018-02-02T01:25:14.921Z,994.28
2018-02-02T01:26:14.985Z,994.28
2018-02-02T01:27:15.052Z,994.21
2018-02-02T01:28:15.115Z,994.26
2018-02-02T01:29:15.180Z,994.25
2018-02-02T01:30:15.244Z,994.27
2018-02-02T01:31:15.310Z,994.28
2018-02-02T01:32:15.372Z,994.28
2018-02-02T01:33:15.438Z,994.28
2018-02-02T01:34:15.503Z,994.32
2018-02-02T01:35:15.568Z,994.34
2018-02-02T01:36:15.633Z,994.26
2018-02-02T01:37:15.697Z,994.30
2018-02-02T01:38:15.762Z,994.32
2018-02-02T01:39:15.827Z,994.32
2018-02-02T01:40:15.890Z,994.36
2018-02-02T01:41:15.956Z,994.35
2018-02-02T01:42:16.025Z,994.32
2018-02-02T01:43:16.083Z,994.32
2018-02-02T01:44:16.148Z,994.33
2018-02-02T01:45:16.213Z,994.32
2018-02-02T01:46:16.277Z,994.27
2018-02-02T01:47:16.344Z,994.25
2018-02-02T01:48:16.406Z,994.28
2018-02-02T01:49:16.471Z,994.29
2018-02-02T01:50:16.537Z,994.30
2018-02-02T01:51:16.601Z,994.29
2018-02-02T01:52:16.666Z,994.26
2018-02-02T01:53:16.731Z,994.28
2018-02-02T01:54:16.796Z,994.28
2018-02-02T01:55:16.862Z,994.21
2018-02-02T01:56:16.923Z,994.22
2018-02-02T01:57:16.990Z,994.25
2018-02-02T01:58:17.056Z,994.29
2018-02-02T01:59:17.119Z,994.23
2018-02-02T02:00:17.184Z,994.21
2018-02-02T02:01:17.248Z,994.20
2018-02-02T02:02:17.313Z,994.20
2018-02-02T02:03:17.378Z,994.20
2018-02-02T02:04:17.442Z,994.22
2018-02-02T02:05:17.506Z,994.18
2018-02-02T02:06:17.571Z,994.21
2018-02-02T02:07:17.637Z,994.20
2018-02-02T02:08:17.700Z,994.19
2018-02-02T02:09:17.766Z,994.15
2018-02-02T02:10:17.830Z,994.14
2018-02-02T02:11:17.943Z,994.17
2018-02-02T02:12:17.959Z,994.17
2018-02-02T02:13:18.025Z,994.16
2018-02-02T02:14:18.088Z,994.15
2018-02-02T02:15:18.154Z,994.12
2018-02-02T02:16:18.217Z,994.13
2018-02-02T02:17:18.281Z,994.11
2018-02-02T02:18:18.348Z,994.11
2018-02-02T02:19:18.413Z,994.07
2018-02-02T02:20:18.477Z,994.09
2018-02-02T02:21:18.541Z,994.05
2018-02-02T02:22:18.605Z,994.05
2018-02-02T02:23:18.671Z,993.99
2018-02-02T02:24:18.735Z,993.98
2018-02-02T02:25:18.800Z,993.99
2018-02-02T02:26:18.865Z,994.01
2018-02-02T02:27:18.930Z,994.05
2018-02-02T02:28:18.995Z,994.05
2018-02-02T02:29:19.057Z,994.08
2018-02-02T02:30:19.124Z,994.11
2018-02-02T02:31:19.188Z,994.13
2018-02-02T02:32:19.251Z,994.17
2018-02-02T02:33:19.318Z,994.16
2018-02-02T02:34:19.392Z,994.19
2018-02-02T02:35:19.450Z,994.13
2018-02-02T02:36:19.513Z,994.15
2018-02-02T02:37:19.578Z,994.15
2018-02-02T02:38:19.641Z,994.14
2018-02-02T02:39:19.705Z,994.15
2018-02-02T02:40:19.770Z,994.12
2018-02-02T02:41:19.834Z,994.08
2018-02-02T02:42:19.899Z,994.09
2018-02-02T02:43:19.966Z,994.07
2018-02-02T02:44:20.029Z,994.09
2018-02-02T02:45:20.092Z,994.07
2018-02-02T02:46:20.157Z,994.05
2018-02-02T02:47:20.224Z,994.01
2018-02-02T02:48:20.287Z,993.98
2018-02-02T02:49:20.357Z,993.98
2018-02-02T02:50:20.416Z,993.95
2018-02-02T02:51:20.482Z,993.92
2018-02-02T02:52:20.552Z,993.85
2018-02-02T02:53:20.611Z,993.90
2018-02-02T02:54:20.678Z,993.87
2018-02-02T02:55:20.740Z,993.83
2018-02-02T02:56:20.804Z,993.80
2018-02-02T02:57:20.869Z,993.83
2018-02-02T02:58:20.935Z,993.87
2018-02-02T02:59:21.001Z,993.84
2018-02-02T03:00:21.063Z,993.83
2018-02-02T03:01:21.127Z,993.79
2018-02-02T03:02:21.193Z,993.81
2018-02-02T03:03:21.258Z,993.79
2018-02-02T03:04:21.322Z,993.79
2018-02-02T03:05:21.388Z,993.79
2018-02-02T03:06:21.453Z,993.77
2018-02-02T03:07:21.518Z,993.80
2018-02-02T03:08:21.582Z,993.80
2018-02-02T03:09:21.646Z,993.79
2018-02-02T03:10:21.710Z,993.76
2018-02-02T03:11:21.776Z,993.77
2018-02-02T03:12:21.840Z,993.79
2018-02-02T03:13:21.905Z,993.75
2018-02-02T03:14:21.969Z,993.76
2018-02-02T03:15:22.034Z,993.77
2018-02-02T03:16:22.098Z,993.78
2018-02-02T03:17:22.163Z,993.77
2018-02-02T03:18:22.228Z,993.72
2018-02-02T03:19:22.293Z,993.70
2018-02-02T03:20:22.356Z,993.72
2018-02-02T03:21:22.426Z,993.71
2018-02-02T03:22:22.488Z,993.72
2018-02-02T03:23:22.552Z,993.73
2018-02-02T03:24:22.616Z,993.72
2018-02-02T03:25:22.682Z,993.68
2018-02-02T03:26:22.746Z,993.68
2018-02-02T03:27:22.811Z,993.69
2018-02-02T03:28:22.876Z,993.65
2018-02-02T03:29:22.941Z,993.66
2018-02-02T03:30:23.006Z,993.68
2018-02-02T03:31:23.070Z,993.68
2018-02-02T03:32:23.134Z,993.71
2018-02-02T03:33:23.201Z,993.65
2018-02-02T03:34:23.264Z,993.66
2018-02-02T03:35:23.329Z,993.66
2018-02-02T03:36:23.393Z,993.61
2018-02-02T03:37:23.460Z,993.62
2018-02-02T03:38:23.526Z,993.67
2018-02-02T03:39:23.588Z,993.68
2018-02-02T03:40:23.652Z,993.69
2018-02-02T03:41:23.719Z,993.71
2018-02-02T03:42:23.784Z,993.69
2018-02-02T03:43:23.849Z,993.61
2018-02-02T03:44:23.915Z,993.65
2018-02-02T03:45:23.988Z,993.63
2018-02-02T03:46:24.043Z,993.68
2018-02-02T03:47:24.107Z,993.67
2018-02-02T03:48:24.174Z,993.65
2018-02-02T03:49:24.238Z,993.69
2018-02-02T03:50:24.303Z,993.68
2018-02-02T03:51:24.370Z,993.65
2018-02-02T03:52:24.434Z,993.67
2018-02-02T03:53:24.499Z,993.67
2018-02-02T03:54:24.564Z,993.66
2018-02-02T03:55:24.630Z,993.64
2018-02-02T03:56:24.692Z,993.62
2018-02-02T03:57:24.765Z,993.66
2018-02-02T03:58:24.823Z,993.67
2018-02-02T03:59:24.892Z,993.66
2018-02-02T04:00:24.952Z,993.73
2018-02-02T04:01:25.021Z,993.68
2018-02-02T04:02:25.083Z,993.71
2018-02-02T04:03:25.150Z,993.72
2018-02-02T04:04:25.214Z,993.71
2018-02-02T04:05:25.280Z,993.68
2018-02-02T04:06:25.345Z,993.71
2018-02-02T04:07:25.410Z,993.69
2018-02-02T04:08:25.474Z,993.69
2018-02-02T04:09:25.539Z,993.67
2018-02-02T04:10:25.606Z,993.65
2018-02-02T04:11:25.671Z,993.65
2018-02-02T04:12:25.736Z,993.59
2018-02-02T04:13:25.801Z,993.59
2018-02-02T04:14:25.865Z,993.53
2018-02-02T04:15:25.932Z,993.58
2018-02-02T04:16:25.996Z,993.53
2018-02-02T04:17:26.061Z,993.52
2018-02-02T04:18:26.127Z,993.55
2018-02-02T04:19:26.193Z,993.57
2018-02-02T04:20:26.259Z,993.55
2018-02-02T04:21:26.323Z,993.52
2018-02-02T04:22:26.389Z,993.57
2018-02-02T04:23:26.453Z,993.56
2018-02-02T04:24:26.518Z,993.58
2018-02-02T04:25:26.585Z,993.57
2018-02-02T04:26:26.652Z,993.60
2018-02-02T04:27:26.715Z,993.58
2018-02-02T04:28:26.783Z,993.61
2018-02-02T04:29:26.846Z,993.56
2018-02-02T04:30:26.911Z,993.58
2018-02-02T04:31:26.976Z,993.51
2018-02-02T04:32:27.042Z,993.53
2018-02-02T04:33:27.108Z,993.51
2018-02-02T04:34:27.173Z,993.53
2018-02-02T04:35:27.238Z,993.52
2018-02-02T04:36:27.303Z,993.50
2018-02-02T04:37:27.367Z,993.51
2018-02-02T04:38:27.433Z,993.53
2018-02-02T04:39:27.499Z,993.56
2018-02-02T04:40:27.563Z,993.58
2018-02-02T04:41:27.632Z,993.59
2018-02-02T04:42:27.693Z,993.57
2018-02-02T04:43:27.760Z,993.62
2018-02-02T04:44:27.825Z,993.61
2018-02-02T04:45:27.890Z,993.60
2018-02-02T04:46:27.957Z,993.61
2018-02-02T04:47:28.021Z,993.62
2018-02-02T04:48:28.087Z,993.63
2018-02-02T04:49:28.153Z,993.62
2018-02-02T04:50:28.220Z,993.64
2018-02-02T04:51:28.284Z,993.64
2018-02-02T04:52:28.347Z,993.66
2018-02-02T04:53:28.414Z,993.65
2018-02-02T04:54:28.480Z,993.65
2018-02-02T04:55:28.545Z,993.59
2018-02-02T04:56:28.610Z,993.62
2018-02-02T04:57:28.675Z,993.66
2018-02-02T04:58:28.741Z,993.64
2018-02-02T04:59:28.807Z,993.67
2018-02-02T05:00:28.874Z,993.67
2018-02-02T05:01:28.937Z,993.63
2018-02-02T05:02:29.004Z,993.60
2018-02-02T05:03:29.069Z,993.64
2018-02-02T05:04:29.132Z,993.67
2018-02-02T05:05:29.198Z,993.68
2018-02-02T05:06:29.266Z,993.68
2018-02-02T05:07:29.329Z,993.70
2018-02-02T05:08:29.395Z,993.67
2018-02-02T05:09:29.460Z,993.61
2018-02-02T05:10:29.527Z,993.60
2018-02-02T05:11:29.591Z,993.67
2018-02-02T05:12:29.656Z,993.66
2018-02-02T05:13:29.721Z,993.64
2018-02-02T05:14:29.789Z,993.64
2018-02-02T05:15:29.853Z,993.61
2018-02-02T05:16:29.918Z,993.64
2018-02-02T05:17:29.983Z,993.65
2018-02-02T05:18:30.050Z,993.64
2018-02-02T05:19:30.115Z,993.63
2018-02-02T05:20:30.180Z,993.63
2018-02-02T05:21:30.249Z,993.62
2018-02-02T05:22:30.314Z,993.64
2018-02-02T05:23:30.378Z,993.65
2018-02-02T05:24:30.442Z,993.67
2018-02-02T05:25:30.515Z,993.70
2018-02-02T05:26:30.574Z,993.69
2018-02-02T05:27:30.639Z,993.64
2018-02-02T05:28:30.704Z,993.70
2018-02-02T05:29:30.770Z,993.65
2018-02-02T05:30:30.835Z,993.62
2018-02-02T05:31:30.902Z,993.67
2018-02-02T05:32:30.966Z,993.63
2018-02-02T05:33:31.031Z,993.59
2018-02-02T05:34:31.100Z,993.59
2018-02-02T05:35:31.164Z,993.62
2018-02-02T05:36:31.228Z,993.61
2018-02-02T05:37:31.293Z,993.55
2018-02-02T05:38:31.360Z,993.56
2018-02-02T05:39:31.425Z,993.58
2018-02-02T05:40:31.490Z,993.56
2018-02-02T05:41:31.554Z,993.58
2018-02-02T05:42:31.621Z,993.56
2018-02-02T05:43:31.688Z,993.54
2018-02-02T05:44:31.753Z,993.55
2018-02-02T05:45:31.818Z,993.55
2018-02-02T05:46:31.884Z,993.54
2018-02-02T05:47:31.949Z,993.56
2018-02-02T05:48:32.014Z,993.54
2018-02-02T05:49:32.079Z,993.51
2018-02-02T05:50:32.146Z,993.51
2018-02-02T05:51:32.211Z,993.54
2018-02-02T05:52:32.277Z,993.50
2018-02-02T05:53:32.342Z,993.48
2018-02-02T05:54:32.407Z,993.53
2018-02-02T05:55:32.474Z,993.53
2018-02-02T05:56:32.539Z,993.50
2018-02-02T05:57:32.605Z,993.47
2018-02-02T05:58:32.671Z,993.51
2018-02-02T05:59:32.736Z,993.51
2018-02-02T06:00:32.799Z,993.46
2018-02-02T06:01:32.866Z,993.52
2018-02-02T06:02:32.934Z,993.51
2018-02-02T06:03:33.000Z,993.46
2018-02-02T06:04:33.063Z,993.52
2018-02-02T06:05:33.129Z,993.51
2018-02-02T06:06:33.195Z,993.52
2018-02-02T06:07:33.261Z,993.54
2018-02-02T06:08:33.325Z,993.53
2018-02-02T06:09:33.392Z,993.54
2018-02-02T06:10:33.461Z,993.53
2018-02-02T06:11:33.524Z,993.54
2018-02-02T06:12:33.588Z,993.56
2018-02-02T06:13:33.653Z,993.60
2018-02-02T06:14:33.721Z,993.57
2018-02-02T06:15:33.786Z,993.59
2018-02-02T06:16:33.850Z,993.61
2018-02-02T06:17:33.917Z,993.57
2018-02-02T06:18:33.982Z,993.61
2018-02-02T06:19:34.049Z,993.63
2018-02-02T06:20:34.112Z,993.59
2018-02-02T06:21:34.180Z,993.64
2018-02-02T06:22:34.245Z,993.59
2018-02-02T06:23:34.311Z,993.56
2018-02-02T06:24:34.375Z,993.57
2018-02-02T06:25:34.443Z,993.65
2018-02-02T06:26:34.509Z,993.59
2018-02-02T06:27:34.572Z,993.64
2018-02-02T06:28:34.639Z,993.70
2018-02-02T06:29:34.704Z,993.68
2018-02-02T06:30:34.771Z,993.73
2018-02-02T06:31:34.835Z,993.71
2018-02-02T06:32:34.901Z,993.76
2018-02-02T06:33:34.967Z,993.73
2018-02-02T06:34:35.033Z,993.73
2018-02-02T06:35:35.100Z,993.69
2018-02-02T06:36:35.163Z,993.74
2018-02-02T06:37:35.230Z,993.74
2018-02-02T06:38:35.295Z,993.76
2018-02-02T06:39:35.363Z,993.71
2018-02-02T06:40:35.456Z,993.73
2018-02-02T06:41:35.492Z,993.74
2018-02-02T06:42:35.558Z,993.75
2018-02-02T06:43:35.625Z,993.72
2018-02-02T06:44:35.689Z,993.74
2018-02-02T06:45:35.756Z,993.71
2018-02-02T06:46:36.882Z,993.78
2018-02-02T06:47:35.890Z,993.73
2018-02-02T06:48:35.953Z,993.71
2018-02-02T06:49:36.017Z,993.72
2018-02-02T06:50:36.084Z,993.75
2018-02-02T06:51:36.150Z,993.80
2018-02-02T06:52:36.215Z,993.77
2018-02-02T06:53:36.280Z,993.77
2018-02-02T06:54:36.347Z,993.79
2018-02-02T06:55:36.413Z,993.74
2018-02-02T06:56:36.478Z,993.76
2018-02-02T06:57:36.544Z,993.75
2018-02-02T06:58:36.736Z,993.79
2018-02-02T06:59:36.791Z,993.77
2018-02-02T07:00:36.754Z,993.79
2018-02-02T07:01:36.820Z,993.82
2018-02-02T07:02:36.891Z,993.82
2018-02-02T07:03:36.940Z,993.76
2018-02-02T07:05:37.100Z,993.77
2018-02-02T07:06:37.143Z,993.75
2018-02-02T07:07:37.204Z,993.75
2018-02-02T07:08:37.288Z,993.76
2018-02-02T07:09:37.344Z,993.75
2018-02-02T07:10:37.479Z,993.70
2018-02-02T07:11:37.563Z,993.73
2018-02-02T07:12:37.610Z,993.70
2018-02-02T07:13:37.671Z,993.68
2018-02-02T07:14:37.660Z,993.67
2018-02-02T07:15:37.786Z,993.77
2018-02-02T07:16:37.843Z,993.76
2018-02-02T07:17:38.342Z,993.77
2018-02-02T07:18:38.440Z,993.81
2018-02-02T07:19:38.684Z,993.79
2018-02-02T07:20:38.607Z,993.76
2018-02-02T07:21:38.987Z,993.79
2018-02-02T07:22:38.213Z,993.78
2018-02-02T07:23:38.367Z,993.76
2018-02-02T07:24:38.375Z,993.76
2018-02-02T07:25:38.462Z,993.79
2018-02-02T07:26:38.745Z,993.77
2018-02-02T07:27:38.643Z,993.77
2018-02-02T07:28:38.711Z,993.79
2018-02-02T07:29:38.760Z,993.80
2018-02-02T07:30:38.827Z,993.76
2018-02-02T07:31:38.794Z,993.76
2018-02-02T07:32:38.951Z,993.85
2018-02-02T07:33:39.105Z,993.86
2018-02-02T07:34:42.032Z,993.88
2018-02-02T07:35:39.222Z,993.86
2018-02-02T07:36:41.074Z,993.88
2018-02-02T07:37:41.850Z,993.87
2018-02-02T07:38:40.806Z,993.89
2018-02-02T07:39:42.101Z,993.86
2018-02-02T07:40:40.825Z,993.87
2018-02-02T07:41:39.528Z,993.85
2018-02-02T07:42:39.523Z,993.83
2018-02-02T07:43:39.588Z,993.82
2018-02-02T07:44:40.203Z,993.87
2018-02-02T07:45:40.212Z,993.87
2018-02-02T07:46:40.381Z,993.80
2018-02-02T07:47:40.670Z,993.85
2018-02-02T07:48:40.490Z,993.90
2018-02-02T07:49:41.240Z,993.85
2018-02-02T07:50:41.491Z,993.87
2018-02-02T07:51:41.289Z,993.87
2018-02-02T07:52:40.800Z,993.85
2018-02-02T07:53:41.203Z,993.82
2018-02-02T07:54:41.542Z,993.83
2018-02-02T07:55:41.340Z,993.84
2018-02-02T07:56:41.325Z,993.84
2018-02-02T07:57:41.012Z,993.86
2018-02-02T07:58:41.057Z,993.87
2018-02-02T07:59:40.612Z,993.89
2018-02-02T08:00:40.676Z,993.83
2018-02-02T08:01:40.755Z,993.84
2018-02-02T08:02:40.810Z,993.78
2018-02-02T08:03:40.879Z,993.79
2018-02-02T08:04:40.998Z,993.83
2018-02-02T08:05:41.139Z,993.81
2018-02-02T08:06:41.076Z,993.80
2018-02-02T08:07:42.446Z,993.85
2018-02-02T08:08:41.204Z,993.84
2018-02-02T08:09:41.378Z,993.79
2018-02-02T08:10:41.335Z,993.86
2018-02-02T08:11:41.750Z,993.83
2018-02-02T08:12:41.467Z,993.80
2018-02-02T08:13:41.633Z,993.90
2018-02-02T08:14:41.599Z,993.93
2018-02-02T08:15:41.663Z,993.87
2018-02-02T08:16:41.729Z,993.84
2018-02-02T08:17:41.795Z,993.82
2018-02-02T08:18:41.862Z,993.84
2018-02-02T08:19:41.927Z,993.84
2018-02-02T08:20:42.058Z,993.86
2018-02-02T08:21:42.058Z,993.87
2018-02-02T08:22:42.125Z,993.90
2018-02-02T08:23:42.190Z,993.95
2018-02-02T08:24:42.265Z,993.92
2018-02-02T08:25:42.331Z,993.91
2018-02-02T08:26:42.628Z,993.88
2018-02-02T08:27:42.453Z,993.86
2018-02-02T08:28:42.518Z,993.84
2018-02-02T08:29:42.593Z,993.93
2018-02-02T08:30:42.650Z,993.89
2018-02-02T08:31:42.717Z,993.97
2018-02-02T08:32:42.782Z,993.88
2018-02-02T08:33:42.902Z,993.81
2018-02-02T08:34:42.914Z,993.83
2018-02-02T08:35:42.981Z,993.80
2018-02-02T08:36:43.046Z,993.85
2018-02-02T08:37:43.111Z,993.81
2018-02-02T08:38:45.656Z,993.76
2018-02-02T08:39:43.246Z,993.74
2018-02-02T08:40:43.311Z,993.74
2018-02-02T08:41:43.386Z,993.76
2018-02-02T08:42:43.548Z,993.74
2018-02-02T08:43:43.531Z,993.75
2018-02-02T08:44:43.580Z,993.73
2018-02-02T08:45:43.640Z,993.72
2018-02-02T08:46:43.705Z,993.73
2018-02-02T08:47:43.772Z,993.76
2018-02-02T08:48:43.836Z,993.78
2018-02-02T08:49:43.903Z,993.77
2018-02-02T08:50:43.971Z,993.72
2018-02-02T08:51:44.085Z,993.77
2018-02-02T08:52:44.099Z,993.74
2018-02-02T08:53:44.175Z,993.73
2018-02-02T08:54:44.232Z,993.79
2018-02-02T08:55:44.328Z,993.83
2018-02-02T08:56:44.364Z,993.74
2018-02-02T08:57:44.438Z,993.79
2018-02-02T08:58:44.677Z,993.84
2018-02-02T08:59:44.566Z,993.83
2018-02-02T09:00:44.634Z,993.83
2018-02-02T09:01:44.704Z,993.83
2018-02-02T09:02:44.835Z,993.82
2018-02-02T09:03:44.946Z,993.83
2018-02-02T09:04:45.117Z,993.82
2018-02-02T09:05:44.975Z,993.86
2018-02-02T09:06:45.052Z,993.89
2018-02-02T09:07:45.149Z,993.94
2018-02-02T09:08:45.220Z,993.93
2018-02-02T09:09:45.358Z,993.93
2018-02-02T09:10:45.479Z,993.94
2018-02-02T09:11:45.361Z,993.94
2018-02-02T09:12:45.429Z,993.94
2018-02-02T09:13:45.487Z,993.95
2018-02-02T09:14:45.555Z,993.97
2018-02-02T09:15:45.623Z,993.99
2018-02-02T09:16:45.705Z,993.96
2018-02-02T09:17:45.752Z,993.98
2018-02-02T09:18:45.876Z,993.99
2018-02-02T09:19:45.885Z,994.01
2018-02-02T09:20:45.949Z,993.95
2018-02-02T09:21:46.016Z,993.98
2018-02-02T09:22:46.083Z,994.03
2018-02-02T09:23:46.149Z,994.00
2018-02-02T09:24:46.213Z,994.00
2018-02-02T09:25:47.832Z,993.96
2018-02-02T09:26:46.362Z,994.00
2018-02-02T09:27:46.412Z,993.92
2018-02-02T09:28:46.479Z,993.95
2018-02-02T09:29:46.549Z,993.95
2018-02-02T09:30:46.608Z,993.98
2018-02-02T09:31:46.677Z,993.92
2018-02-02T09:32:47.303Z,993.91
2018-02-02T09:33:46.810Z,993.95
2018-02-02T09:34:46.935Z,993.94
2018-02-02T09:35:47.170Z,993.95
2018-02-02T09:36:47.213Z,993.94
2018-02-02T09:37:47.179Z,993.94
2018-02-02T09:38:47.222Z,993.87
2018-02-02T09:39:47.204Z,993.96
2018-02-02T09:40:47.354Z,993.92
2018-02-02T09:41:47.403Z,993.89
2018-02-02T09:42:47.514Z,993.89
2018-02-02T09:43:47.469Z,993.95
2018-02-02T09:44:47.591Z,993.89
2018-02-02T09:45:48.943Z,993.91
2018-02-02T09:46:47.903Z,993.90
2018-02-02T09:47:47.940Z,993.92
2018-02-02T09:48:47.969Z,993.88
2018-02-02T09:49:47.862Z,993.92
2018-02-02T09:50:48.335Z,993.92
2018-02-02T09:51:48.027Z,993.90
2018-02-02T09:52:48.061Z,993.85
2018-02-02T09:53:49.820Z,993.85
2018-02-02T09:55:48.331Z,993.82
2018-02-02T09:56:48.325Z,993.82
2018-02-02T09:57:48.391Z,993.84
2018-02-02T09:58:48.526Z,993.79
2018-02-02T09:59:48.524Z,993.79
2018-02-02T10:00:48.588Z,993.83
2018-02-02T10:01:48.655Z,993.82
2018-02-02T10:02:48.723Z,993.81
2018-02-02T10:03:48.790Z,993.79
2018-02-02T10:04:48.986Z,993.80
2018-02-02T10:05:48.919Z,993.82
2018-02-02T10:06:48.987Z,993.80
2018-02-02T10:07:49.117Z,993.83
2018-02-02T10:08:49.173Z,993.82
2018-02-02T10:09:49.184Z,993.88
2018-02-02T10:10:49.257Z,993.84
2018-02-02T10:11:49.316Z,993.91
2018-02-02T10:13:49.503Z,993.83
2018-02-02T10:14:49.556Z,993.83
2018-02-02T10:15:49.639Z,993.84
2018-02-02T10:16:49.741Z,993.92
2018-02-02T10:17:49.810Z,993.90
2018-02-02T10:18:49.865Z,993.89
2018-02-02T10:20:50.094Z,993.95
2018-02-02T10:21:50.090Z,993.93
2018-02-02T10:22:50.255Z,993.93
2018-02-02T10:23:50.219Z,993.93
2018-02-02T10:24:50.285Z,993.90
2018-02-02T10:25:50.410Z,993.92
2018-02-02T10:26:50.417Z,993.91
2018-02-02T10:27:50.498Z,993.98
2018-02-02T10:28:50.544Z,993.91
2018-02-02T10:29:50.627Z,993.91
2018-02-02T10:30:50.659Z,993.94
2018-02-02T10:31:50.759Z,993.88
2018-02-02T10:32:50.786Z,993.96
2018-02-02T10:33:50.790Z,993.93
2018-02-02T10:34:50.938Z,993.92
2018-02-02T10:35:50.900Z,993.91
2018-02-02T10:37:51.035Z,993.98
2018-02-02T10:38:51.335Z,993.96
2018-02-02T10:39:51.226Z,993.93
2018-02-02T10:40:51.245Z,993.94
2018-02-02T10:41:51.320Z,993.93
2018-02-02T10:42:51.485Z,993.88
2018-02-02T10:43:51.542Z,993.97
2018-02-02T10:44:51.601Z,993.95
2018-02-02T10:45:51.648Z,993.97
2018-02-02T10:46:51.631Z,994.01
2018-02-02T10:47:51.692Z,994.07
2018-02-02T10:48:51.758Z,994.00
2018-02-02T10:49:51.823Z,994.01
2018-02-02T10:50:51.890Z,993.98
2018-02-02T10:51:51.955Z,994.01
2018-02-02T10:52:52.089Z,993.96
2018-02-02T10:53:52.089Z,993.98
2018-02-02T10:54:52.153Z,994.00
2018-02-02T10:55:52.462Z,994.06
2018-02-02T10:56:52.285Z,994.07
2018-02-02T10:57:52.350Z,994.07
2018-02-02T10:58:52.418Z,994.05
2018-02-02T10:59:52.485Z,994.09
2018-02-02T11:00:52.547Z,994.08
2018-02-02T11:01:52.614Z,994.09
2018-02-02T11:02:52.936Z,994.00
2018-02-02T11:03:52.747Z,993.98
2018-02-02T11:04:52.811Z,994.01
2018-02-02T11:05:52.878Z,993.99
2018-02-02T11:06:52.944Z,993.99
2018-02-02T11:07:53.010Z,993.93
2018-02-02T11:08:53.105Z,993.95
2018-02-02T11:09:53.142Z,993.95
2018-02-02T11:10:53.209Z,993.92
2018-02-02T11:11:53.348Z,993.90
2018-02-02T11:12:53.412Z,993.91
2018-02-02T11:13:53.407Z,993.91
2018-02-02T11:14:53.547Z,993.91
2018-02-02T11:15:53.629Z,993.93
2018-02-02T11:16:56.203Z,993.91
2018-02-02T11:17:53.681Z,993.88
2018-02-02T11:18:53.771Z,993.96
2018-02-02T11:19:53.937Z,993.92
2018-02-02T11:20:54.023Z,993.89
2018-02-02T11:22:54.088Z,993.90
2018-02-02T11:23:54.155Z,993.89
2018-02-02T11:24:54.193Z,993.86
2018-02-02T11:25:54.328Z,993.87
2018-02-02T11:26:54.284Z,993.85
2018-02-02T11:27:54.441Z,993.83
2018-02-02T11:28:54.519Z,993.84
2018-02-02T11:29:54.562Z,993.86
2018-02-02T11:30:54.653Z,993.95
2018-02-02T11:31:54.723Z,993.90
2018-02-02T11:32:54.804Z,993.89
2018-02-02T11:33:54.952Z,993.92
2018-02-02T11:34:57.089Z,993.90
2018-02-02T11:35:56.991Z,993.92
2018-02-02T11:36:58.440Z,993.88
2018-02-02T11:37:55.085Z,993.90
2018-02-02T11:38:55.483Z,993.94
2018-02-02T11:39:55.300Z,993.91
2018-02-02T11:40:55.295Z,993.97
2018-02-02T11:41:55.259Z,993.92
2018-02-02T11:42:55.324Z,993.96
2018-02-02T11:43:55.390Z,993.98
2018-02-02T11:44:55.460Z,993.92
2018-02-02T11:45:55.523Z,993.93
2018-02-02T11:46:55.592Z,993.96
2018-02-02T11:47:55.657Z,993.94
2018-02-02T11:48:55.722Z,993.92
2018-02-02T11:49:55.789Z,993.95
2018-02-02T11:50:55.854Z,994.10
2018-02-02T11:51:55.921Z,994.02
2018-02-02T11:52:55.988Z,993.99
2018-02-02T11:53:56.054Z,993.97
2018-02-02T11:54:56.120Z,994.06
2018-02-02T11:55:56.249Z,994.04
2018-02-02T11:56:56.252Z,994.01
2018-02-02T11:57:56.320Z,994.07
2018-02-02T11:58:56.386Z,994.05
2018-02-02T11:59:56.459Z,994.02
2018-02-02T12:00:56.517Z,994.03
2018-02-02T12:01:56.586Z,994.05
2018-02-02T12:02:56.652Z,994.07
2018-02-02T12:03:56.721Z,994.12
2018-02-02T12:04:56.785Z,994.25
2018-02-02T12:05:56.852Z,994.20
2018-02-02T12:06:56.919Z,994.22
2018-02-02T12:07:56.985Z,994.21
2018-02-02T12:08:57.054Z,994.21
2018-02-02T12:09:57.118Z,994.25
2018-02-02T12:10:57.185Z,994.25
2018-02-02T12:11:57.250Z,994.23
2018-02-02T12:12:57.319Z,994.23
2018-02-02T12:13:58.049Z,994.20
2018-02-02T12:14:57.451Z,994.10
2018-02-02T12:15:57.707Z,994.19
2018-02-02T12:16:58.383Z,994.18
2018-02-02T12:17:57.651Z,994.15
2018-02-02T12:18:57.717Z,994.15
2018-02-02T12:19:57.835Z,994.18
2018-02-02T12:20:57.850Z,994.20
2018-02-02T12:21:57.917Z,994.22
2018-02-02T12:22:57.984Z,994.22
2018-02-02T12:23:58.051Z,994.19
2018-02-02T12:24:58.116Z,994.18
2018-02-02T12:25:58.186Z,994.23
2018-02-02T12:26:58.250Z,994.24
2018-02-02T12:27:58.318Z,994.26
2018-02-02T12:28:58.383Z,994.27
2018-02-02T12:29:58.450Z,994.28
2018-02-02T12:30:58.518Z,994.25
2018-02-02T12:31:58.584Z,994.22
2018-02-02T12:32:58.650Z,994.24
2018-02-02T12:33:58.716Z,994.23
2018-02-02T12:34:58.783Z,994.23